This is the latest recevied weather packets stored in our database for station/object K4FDS. If no packets are shown the sender has not sent any weather packets the latest 10 day(s).
| Time | Temp. | Humidity | Pressure | Rain* | Wind** | Luminosity | Snow |
|---|---|---|---|---|---|---|---|
| 1777337357 | 18.33° C | 46% | 1016.6 hPa | 0 mm | 0.45 m/s, 142° | - | - |
| 1777335557 | 18.33° C | 46% | 1016.6 hPa | 0 mm | 0.45 m/s, 142° | - | - |
| 1777333756 | 18.33° C | 46% | 1016.6 hPa | 0 mm | 0.45 m/s, 142° | - | - |
| 1777331957 | 18.33° C | 45% | 1016.5 hPa | 0 mm | 0 m/s | - | - |
| 1777330157 | 19.44° C | 44% | 1016.3 hPa | 0 mm | 0 m/s | - | - |
| 1777328356 | 19.44° C | 44% | 1016.2 hPa | 0 mm | 0.45 m/s, 179° | - | - |
| 1777326556 | 20° C | 42% | 1016.3 hPa | 0 mm | 0 m/s | - | - |
| 1777324756 | 20.56° C | 44% | 1015.9 hPa | 0 mm | 0.45 m/s, 121° | - | - |
| 1777322956 | 20.56° C | 44% | 1016.5 hPa | 0 mm | 0.89 m/s, 161° | - | - |
| 1777321156 | 20.56° C | 44% | 1016.5 hPa | 0 mm | 0.89 m/s, 161° | - | - |
| 1777319356 | 20.56° C | 44% | 1016.5 hPa | 0 mm | 0.89 m/s, 161° | - | - |
| 1777317556 | 21.11° C | 43% | 1016.6 hPa | 0 mm | 0.89 m/s, 175° | - | - |
| 1777315756 | 20° C | 43% | 1017.1 hPa | 0 mm | 0.89 m/s, 21° | - | - |
| 1777313956 | 19.44° C | 43% | 1017.5 hPa | 0 mm | 0.89 m/s, 133° | - | - |
| 1777312156 | 19.44° C | 42% | 1017.7 hPa | 0 mm | 0.45 m/s, 171° | - | - |
| 1777310356 | 18.33° C | 45% | 1018.4 hPa | 0 mm | 0.89 m/s, 172° | - | - |
| 1777308556 | 18.33° C | 45% | 1018.4 hPa | 0 mm | 0.89 m/s, 172° | - | - |
| 1777306756 | 17.78° C | 45% | 1018.5 hPa | 0 mm | 0.45 m/s, 169° | - | - |
| 1777304956 | 16.67° C | 47% | 1019 hPa | 0 mm | 0.89 m/s, 33° | - | - |
| 1777303156 | 15° C | 54% | 1019.2 hPa | 0 mm | 0.45 m/s, 328° | - | - |
| 1777301356 | 15° C | 54% | 1019.2 hPa | 0 mm | 0.45 m/s, 328° | - | - |
| 1777299556 | 13.89° C | 60% | 1020.3 hPa | 0 mm | 0.89 m/s, 143° | - | - |
| 1777297756 | 12.22° C | 65% | 1019.9 hPa | 0 mm | 0.45 m/s, 64° | - | - |
| 1777295956 | 12.22° C | 65% | 1019.9 hPa | 0 mm | 0.45 m/s, 64° | - | - |
| 1777294156 | 11.67° C | 83% | 1017.9 hPa | 0 mm | 0 m/s | - | - |
* Rain latest hour (hover to see other rain measurements)
** Current wind speed in m/s (hover to see current wind gust speed)